createdAt,value
2018-04-02T00:01:24.432Z,11.80
2018-04-02T00:03:51.950Z,11.97
2018-04-02T00:06:19.497Z,11.27
2018-04-02T00:08:47.018Z,12.43
2018-04-02T00:11:15.323Z,12.47
2018-04-02T00:13:42.842Z,12.77
2018-04-02T00:16:10.392Z,12.07
2018-04-02T00:18:37.912Z,11.87
2018-04-02T00:21:05.444Z,12.70
2018-04-02T00:23:32.976Z,12.50
2018-04-02T00:26:01.287Z,11.67
2018-04-02T00:28:28.811Z,12.53
2018-04-02T00:30:56.364Z,12.53
2018-04-02T00:33:24.681Z,12.80
2018-04-02T00:35:52.232Z,12.67
2018-04-02T00:38:19.777Z,12.80
2018-04-02T00:40:47.335Z,12.53
2018-04-02T00:43:14.861Z,12.90
2018-04-02T00:45:42.405Z,11.63
2018-04-02T00:48:09.940Z,12.97
2018-04-02T00:50:37.886Z,12.23
2018-04-02T00:53:05.410Z,12.83
2018-04-02T00:55:33.500Z,13.43
2018-04-02T00:58:01.038Z,13.07
2018-04-02T01:00:29.341Z,13.37
2018-04-02T01:02:56.895Z,12.97
2018-04-02T01:05:24.629Z,13.13
2018-04-02T01:07:52.934Z,13.70
2018-04-02T01:10:20.465Z,13.67
2018-04-02T01:12:48.776Z,13.30
2018-04-02T01:15:16.314Z,12.70
2018-04-02T01:17:44.628Z,12.80
2018-04-02T01:20:12.150Z,12.00
2018-04-02T01:22:39.682Z,12.67
2018-04-02T01:25:07.969Z,13.23
2018-04-02T01:27:36.274Z,14.23
2018-04-02T01:30:03.798Z,13.67
2018-04-02T01:32:32.096Z,13.83
2018-04-02T01:34:59.623Z,14.60
2018-04-02T01:37:27.934Z,14.27
2018-04-02T01:39:55.445Z,15.47
2018-04-02T01:42:22.989Z,14.67
2018-04-02T01:44:50.505Z,13.83
2018-04-02T01:47:18.060Z,14.50
2018-04-02T01:49:45.579Z,15.77
2018-04-02T01:52:14.185Z,14.87
2018-04-02T01:54:41.721Z,16.37
2018-04-02T01:57:09.262Z,15.43
2018-04-02T01:59:36.796Z,16.10
2018-04-02T02:02:04.331Z,16.30
2018-04-02T02:04:31.855Z,15.50
2018-04-02T02:07:00.159Z,17.70
2018-04-02T02:09:27.686Z,16.13
2018-04-02T02:11:56.006Z,15.57
2018-04-02T02:14:23.575Z,16.80
2018-04-02T02:16:51.136Z,16.83
2018-04-02T02:19:18.662Z,17.37
2018-04-02T02:21:46.246Z,16.57
2018-04-02T02:24:13.770Z,16.13
2018-04-02T02:26:41.307Z,16.90
2018-04-02T02:29:08.833Z,18.07
2018-04-02T02:31:36.378Z,18.40
2018-04-02T02:34:03.902Z,18.63
2018-04-02T02:36:31.431Z,16.80
2018-04-02T02:38:58.944Z,18.93
2018-04-02T02:41:26.475Z,17.70
2018-04-02T02:43:54.728Z,17.97
2018-04-02T02:46:22.274Z,19.10
2018-04-02T02:48:49.799Z,19.17
2018-04-02T02:51:17.328Z,20.07
2018-04-02T02:53:44.851Z,19.07
2018-04-02T02:56:13.174Z,20.23
2018-04-02T02:58:40.699Z,20.90
2018-04-02T03:01:08.239Z,21.03
2018-04-02T03:03:35.791Z,21.93
2018-04-02T03:06:03.327Z,21.30
2018-04-02T03:08:31.449Z,22.13
2018-04-02T03:10:58.982Z,21.17
2018-04-02T03:13:26.514Z,20.60
2018-04-02T03:15:54.034Z,22.00
2018-04-02T03:18:21.570Z,20.20
2018-04-02T03:20:49.098Z,21.00
2018-04-02T03:23:16.638Z,20.07
2018-04-02T03:25:44.153Z,22.47
2018-04-02T03:28:11.690Z,20.23
2018-04-02T03:30:39.215Z,21.83
2018-04-02T03:33:06.766Z,23.40
2018-04-02T03:35:34.296Z,22.30
2018-04-02T03:38:01.891Z,21.30
2018-04-02T03:40:29.409Z,23.07
2018-04-02T03:42:56.948Z,19.07
2018-04-02T03:45:24.498Z,20.73
2018-04-02T03:47:52.822Z,20.70
2018-04-02T03:50:20.359Z,21.73
2018-04-02T03:52:47.907Z,20.60
2018-04-02T03:55:15.443Z,22.63
2018-04-02T03:57:43.758Z,23.63
2018-04-02T04:00:11.291Z,21.33
2018-04-02T04:02:38.840Z,19.10
2018-04-02T04:05:07.147Z,22.70
2018-04-02T04:07:34.702Z,22.73
2018-04-02T04:10:02.221Z,22.33
2018-04-02T04:12:30.540Z,21.63
2018-04-02T04:14:58.070Z,23.30
2018-04-02T04:17:25.615Z,23.20
2018-04-02T04:19:53.914Z,22.73
2018-04-02T04:22:21.460Z,23.07
2018-04-02T04:24:49.749Z,22.53
2018-04-02T04:27:17.477Z,23.30
2018-04-02T04:29:45.779Z,22.77
2018-04-02T04:32:13.351Z,23.40
2018-04-02T04:34:40.864Z,23.43
2018-04-02T04:37:09.180Z,21.47
2018-04-02T04:39:36.707Z,22.40
2018-04-02T04:42:04.992Z,22.73
2018-04-02T04:44:32.525Z,21.47
2018-04-02T04:47:00.055Z,23.37
2018-04-02T04:49:27.594Z,22.37
2018-04-02T04:51:55.129Z,22.90
2018-04-02T04:54:22.678Z,22.30
2018-04-02T04:56:50.200Z,22.70
2018-04-02T04:59:17.750Z,21.20
2018-04-02T05:01:45.277Z,20.67
2018-04-02T05:04:12.822Z,20.27
2018-04-02T05:06:40.346Z,20.87
2018-04-02T05:09:07.906Z,20.43
2018-04-02T05:11:35.442Z,19.93
2018-04-02T05:14:03.024Z,18.23
2018-04-02T05:16:31.323Z,19.67
2018-04-02T05:18:58.871Z,20.17
2018-04-02T05:21:26.398Z,19.37
2018-04-02T05:23:53.933Z,18.87
2018-04-02T05:26:21.450Z,19.20
2018-04-02T05:28:48.990Z,17.33
2018-04-02T05:31:17.289Z,19.53
2018-04-02T05:33:44.817Z,18.17
2018-04-02T05:36:13.096Z,18.80
2018-04-02T05:38:40.671Z,19.27
2018-04-02T05:41:08.189Z,17.53
2018-04-02T05:43:35.726Z,18.17
2018-04-02T05:46:03.241Z,17.07
2018-04-02T05:48:30.777Z,18.50
2018-04-02T05:50:58.336Z,20.20
2018-04-02T05:53:25.875Z,17.17
2018-04-02T05:55:53.414Z,16.70
2018-04-02T05:58:20.953Z,17.33
2018-04-02T06:00:48.481Z,16.43
2018-04-02T06:03:16.030Z,17.07
2018-04-02T06:05:44.562Z,17.20
2018-04-02T06:08:12.092Z,15.77
2018-04-02T06:10:39.618Z,15.20
2018-04-02T06:13:07.922Z,15.30
2018-04-02T06:15:35.467Z,15.67
2018-04-02T06:18:02.993Z,14.90
2018-04-02T06:20:31.294Z,14.67
2018-04-02T06:22:59.572Z,14.73
2018-04-02T06:25:27.100Z,14.73
2018-04-02T06:27:54.612Z,14.50
2018-04-02T06:30:22.157Z,14.20
2018-04-02T06:32:49.669Z,14.60
2018-04-02T06:35:17.212Z,14.53
2018-04-02T06:37:44.734Z,13.63
2018-04-02T06:40:12.273Z,13.67
2018-04-02T06:42:39.803Z,14.13
2018-04-02T06:45:07.396Z,13.90
2018-04-02T06:47:35.654Z,13.17
2018-04-02T06:50:03.197Z,12.70
2018-04-02T06:52:31.480Z,13.07
2018-04-02T06:54:59.772Z,12.23
2018-04-02T06:57:27.298Z,11.70
2018-04-02T06:59:54.842Z,12.57
2018-04-02T07:02:22.367Z,12.00
2018-04-02T07:04:49.905Z,11.30
2018-04-02T07:07:17.427Z,11.53
2018-04-02T07:09:44.953Z,11.03
2018-04-02T07:12:12.494Z,11.17
2018-04-02T07:14:40.030Z,11.67
2018-04-02T07:17:07.566Z,10.90
2018-04-02T07:19:35.118Z,10.73
2018-04-02T07:22:02.644Z,11.30
2018-04-02T07:24:30.229Z,10.63
2018-04-02T07:26:57.761Z,10.13
2018-04-02T07:29:25.342Z,9.77
2018-04-02T07:31:52.916Z,9.40
2018-04-02T07:34:20.530Z,9.87
2018-04-02T07:36:48.062Z,10.00
2018-04-02T07:39:15.610Z,9.40
2018-04-02T07:41:43.139Z,9.67
2018-04-02T07:44:10.676Z,9.97
2018-04-02T07:46:38.198Z,9.90
2018-04-02T07:49:05.723Z,10.00
2018-04-02T07:51:34.047Z,9.60
2018-04-02T07:54:01.588Z,9.50
2018-04-02T07:56:29.128Z,9.53
2018-04-02T07:58:56.640Z,8.57
2018-04-02T08:01:24.184Z,8.57
2018-04-02T08:03:51.714Z,9.00
2018-04-02T08:06:19.252Z,8.73
2018-04-02T08:08:47.538Z,8.33
2018-04-02T08:11:15.088Z,9.40
2018-04-02T08:13:43.361Z,9.23
2018-04-02T08:16:10.904Z,8.87
2018-04-02T08:18:39.198Z,9.50
2018-04-02T08:21:06.746Z,9.10
2018-04-02T08:23:35.051Z,9.60
2018-04-02T08:26:02.587Z,9.50
2018-04-02T08:28:30.152Z,9.67
2018-04-02T08:30:59.885Z,9.77
2018-04-02T08:33:27.418Z,9.10
2018-04-02T08:35:54.966Z,9.33
2018-04-02T08:38:22.514Z,8.37
2018-04-02T08:40:50.067Z,9.20
2018-04-02T08:43:18.375Z,9.30
2018-04-02T08:45:45.912Z,8.30
2018-04-02T08:48:13.464Z,8.17
2018-04-02T08:50:41.030Z,8.20
2018-04-02T08:53:08.574Z,8.33
2018-04-02T08:55:40.786Z,8.30
2018-04-02T08:58:08.323Z,7.90
2018-04-02T09:00:36.741Z,8.13
2018-04-02T09:03:04.453Z,8.17
2018-04-02T09:05:32.020Z,8.10
2018-04-02T09:07:59.570Z,7.33
2018-04-02T09:10:28.548Z,7.10
2018-04-02T09:12:56.842Z,7.67
2018-04-02T09:15:24.466Z,7.20
2018-04-02T09:17:52.006Z,8.07
2018-04-02T09:20:19.567Z,8.00
2018-04-02T09:22:47.129Z,7.40
2018-04-02T09:25:14.724Z,7.37
2018-04-02T09:27:43.026Z,7.10
2018-04-02T09:30:10.561Z,9.20
2018-04-02T09:32:38.183Z,10.17
2018-04-02T09:35:05.716Z,8.00
2018-04-02T09:37:33.266Z,7.77
2018-04-02T09:40:00.815Z,8.97
2018-04-02T09:42:28.368Z,7.43
2018-04-02T09:44:55.894Z,7.23
2018-04-02T09:47:24.247Z,8.10
2018-04-02T09:49:51.775Z,8.17
2018-04-02T09:52:19.330Z,8.50
2018-04-02T09:54:46.849Z,7.40
2018-04-02T09:57:14.401Z,8.57
2018-04-02T09:59:42.677Z,6.90
2018-04-02T10:02:14.114Z,8.20
2018-04-02T10:04:43.607Z,7.10
2018-04-02T10:07:11.349Z,8.07
2018-04-02T10:09:38.886Z,6.80
2018-04-02T10:12:06.455Z,7.10
2018-04-02T10:14:33.978Z,7.03
2018-04-02T10:17:01.544Z,5.70
2018-04-02T10:19:29.064Z,6.70
2018-04-02T10:21:56.703Z,6.27
2018-04-02T10:24:24.154Z,6.47
2018-04-02T10:26:51.714Z,6.37
2018-04-02T10:29:19.254Z,6.57
2018-04-02T10:31:46.818Z,6.40
2018-04-02T10:34:14.355Z,6.63
2018-04-02T10:36:41.883Z,6.27
2018-04-02T10:39:09.437Z,6.43
2018-04-02T10:41:36.953Z,6.23
2018-04-02T10:44:04.515Z,7.23
2018-04-02T10:46:32.046Z,6.70
2018-04-02T10:48:59.602Z,6.07
2018-04-02T10:51:27.158Z,6.57
2018-04-02T10:53:54.723Z,6.50
2018-04-02T10:56:22.242Z,6.60
2018-04-02T10:58:50.611Z,6.40
2018-04-02T11:01:18.160Z,6.83
2018-04-02T11:03:45.686Z,7.17
2018-04-02T11:06:13.263Z,6.97
2018-04-02T11:08:40.790Z,7.30
2018-04-02T11:11:08.367Z,9.23
2018-04-02T11:13:37.798Z,7.47
2018-04-02T11:16:05.350Z,8.07
2018-04-02T11:18:32.874Z,8.03
2018-04-02T11:21:00.472Z,8.30
2018-04-02T11:23:28.025Z,8.03
2018-04-02T11:25:55.548Z,7.77
2018-04-02T11:28:23.871Z,7.80
2018-04-02T11:30:52.173Z,7.67
2018-04-02T11:33:19.722Z,7.07
2018-04-02T11:35:48.056Z,7.77
2018-04-02T11:38:15.565Z,7.70
2018-04-02T11:40:43.116Z,7.53
2018-04-02T11:43:11.423Z,6.87
2018-04-02T11:45:38.940Z,7.77
2018-04-02T11:48:07.309Z,7.47
2018-04-02T11:50:34.815Z,7.13
2018-04-02T11:53:02.472Z,8.50
2018-04-02T11:55:29.995Z,8.80
2018-04-02T11:57:58.291Z,8.63
2018-04-02T12:00:25.843Z,9.00
2018-04-02T12:02:53.357Z,9.50
2018-04-02T12:05:20.904Z,8.77
2018-04-02T12:07:48.430Z,8.50
2018-04-02T12:10:15.972Z,8.73
2018-04-02T12:12:43.503Z,9.40
2018-04-02T12:15:11.062Z,9.67
2018-04-02T12:17:38.595Z,9.33
2018-04-02T12:20:06.184Z,9.20
2018-04-02T12:22:33.723Z,9.40
2018-04-02T12:25:01.264Z,9.07
2018-04-02T12:27:28.817Z,8.83
2018-04-02T12:29:56.350Z,10.20
2018-04-02T12:32:23.915Z,9.53
2018-04-02T12:34:51.472Z,10.83
2018-04-02T12:37:19.031Z,10.60
2018-04-02T12:39:46.559Z,10.03
2018-04-02T12:42:14.879Z,10.47
2018-04-02T12:44:42.404Z,10.93
2018-04-02T12:47:09.958Z,11.37
2018-04-02T12:49:37.490Z,17.07
2018-04-02T12:52:05.033Z,12.43
2018-04-02T12:54:32.554Z,13.80
2018-04-02T12:57:00.087Z,21.83
2018-04-02T12:59:27.631Z,14.37
2018-04-02T13:01:55.170Z,15.57
2018-04-02T13:04:22.722Z,15.07
2018-04-02T13:06:50.253Z,14.80
2018-04-02T13:09:17.806Z,15.27
2018-04-02T13:11:45.334Z,16.63
2018-04-02T13:14:12.875Z,17.23
2018-04-02T13:16:41.176Z,17.17
2018-04-02T13:19:08.723Z,16.70
2018-04-02T13:21:36.250Z,16.90
2018-04-02T13:24:03.828Z,17.10
2018-04-02T13:26:32.119Z,17.30
2018-04-02T13:28:59.653Z,18.63
2018-04-02T13:31:27.960Z,18.63
2018-04-02T13:33:55.522Z,17.67
2018-04-02T13:36:23.054Z,17.53
2018-04-02T13:38:51.409Z,16.70
2018-04-02T13:41:18.945Z,17.03
2018-04-02T13:43:46.500Z,16.50
2018-04-02T13:46:14.023Z,15.53
2018-04-02T13:48:41.579Z,19.03
2018-04-02T13:51:09.111Z,19.00
2018-04-02T13:53:37.440Z,18.40
2018-04-02T13:56:04.972Z,17.33
2018-04-02T13:58:32.940Z,17.83
2018-04-02T14:01:00.474Z,18.73
2018-04-02T14:03:28.024Z,18.37
2018-04-02T14:05:56.329Z,18.00
2018-04-02T14:08:23.911Z,17.43
2018-04-02T14:10:51.461Z,17.60
2018-04-02T14:13:19.002Z,17.37
2018-04-02T14:15:46.553Z,18.17
2018-04-02T14:18:14.082Z,18.33
2018-04-02T14:20:42.446Z,19.97
2018-04-02T14:23:09.943Z,19.13
2018-04-02T14:25:37.507Z,18.77
2018-04-02T14:28:05.065Z,18.77
2018-04-02T14:30:32.646Z,18.33
2018-04-02T14:33:00.182Z,19.60
2018-04-02T14:35:27.726Z,18.20
2018-04-02T14:37:56.013Z,18.07
2018-04-02T14:40:23.553Z,19.07
2018-04-02T14:42:51.907Z,18.57
2018-04-02T14:45:19.444Z,18.67
2018-04-02T14:47:46.966Z,19.00
2018-04-02T14:50:14.504Z,17.83
2018-04-02T14:52:42.085Z,18.67
2018-04-02T14:55:09.638Z,19.70
2018-04-02T14:57:37.178Z,19.97
2018-04-02T15:00:05.512Z,18.30
2018-04-02T15:02:33.075Z,19.07
2018-04-02T15:05:00.642Z,17.20
2018-04-02T15:07:28.168Z,17.97
2018-04-02T15:09:55.714Z,18.53
2018-04-02T15:12:23.282Z,19.80
2018-04-02T15:14:50.826Z,17.67
2018-04-02T15:17:18.367Z,18.53
2018-04-02T15:19:45.912Z,18.37
2018-04-02T15:22:14.198Z,18.47
2018-04-02T15:24:41.723Z,20.10
2018-04-02T15:27:09.279Z,19.70
2018-04-02T15:29:36.811Z,18.70
2018-04-02T15:32:04.355Z,18.30
2018-04-02T15:34:31.885Z,19.50
2018-04-02T15:37:00.226Z,18.33
2018-04-02T15:39:29.016Z,19.90
2018-04-02T15:41:56.575Z,18.53
2018-04-02T15:44:24.922Z,19.77
2018-04-02T15:46:52.470Z,20.30
2018-04-02T15:49:19.993Z,18.63
2018-04-02T15:51:48.296Z,18.83
2018-04-02T15:54:15.820Z,20.00
2018-04-02T15:56:43.358Z,18.53
2018-04-02T15:59:10.884Z,21.87
2018-04-02T16:01:38.444Z,19.53
2018-04-02T16:04:05.975Z,18.63
2018-04-02T16:06:33.545Z,19.37
2018-04-02T16:09:01.086Z,19.53
2018-04-02T16:11:28.644Z,19.17
2018-04-02T16:13:56.966Z,20.03
2018-04-02T16:16:24.515Z,17.43
2018-04-02T16:18:52.040Z,17.47
2018-04-02T16:21:19.586Z,16.47
2018-04-02T16:23:47.150Z,16.63
2018-04-02T16:26:15.487Z,17.13
2018-04-02T16:28:43.030Z,17.57
2018-04-02T16:31:10.549Z,17.13
2018-04-02T16:33:38.094Z,18.07
2018-04-02T16:36:05.618Z,17.83
2018-04-02T16:38:33.156Z,17.87
2018-04-02T16:41:00.690Z,16.47
2018-04-02T16:43:28.239Z,18.83
2018-04-02T16:45:55.770Z,15.20
2018-04-02T16:48:24.076Z,17.43
2018-04-02T16:50:51.593Z,17.23
2018-04-02T16:53:19.170Z,19.77
2018-04-02T16:55:47.478Z,16.83
2018-04-02T16:58:15.030Z,17.40
2018-04-02T17:00:42.564Z,17.27
2018-04-02T17:03:10.114Z,16.83
2018-04-02T17:05:38.428Z,16.83
2018-04-02T17:08:06.102Z,16.37
2018-04-02T17:10:33.635Z,17.57
2018-04-02T17:13:01.246Z,18.20
2018-04-02T17:15:28.761Z,20.33
2018-04-02T17:17:56.472Z,19.63
2018-04-02T17:20:24.019Z,18.27
2018-04-02T17:22:51.564Z,18.83
2018-04-02T17:25:19.101Z,18.03
2018-04-02T17:27:46.637Z,17.97
2018-04-02T17:30:14.934Z,17.20
2018-04-02T17:32:43.241Z,18.03
2018-04-02T17:35:10.766Z,20.43
2018-04-02T17:37:39.071Z,20.07
2018-04-02T17:40:06.600Z,19.87
2018-04-02T17:42:34.190Z,19.50
2018-04-02T17:45:01.715Z,23.97
2018-04-02T17:47:29.254Z,26.27
2018-04-02T17:49:56.801Z,39.10
2018-04-02T17:52:25.084Z,35.20
2018-04-02T17:54:53.417Z,27.50
2018-04-02T17:57:20.946Z,21.90
2018-04-02T17:59:48.487Z,26.40
2018-04-02T18:02:16.004Z,23.33
2018-04-02T18:04:43.540Z,21.70
2018-04-02T18:07:11.094Z,18.43
2018-04-02T18:09:38.634Z,20.03
2018-04-02T18:12:06.160Z,19.07
2018-04-02T18:14:33.708Z,20.07
2018-04-02T18:17:02.018Z,18.20
2018-04-02T18:19:30.694Z,19.03
2018-04-02T18:21:59.025Z,18.50
2018-04-02T18:24:26.571Z,17.43
2018-04-02T18:26:54.105Z,18.33
2018-04-02T18:29:21.645Z,18.27
2018-04-02T18:31:49.170Z,19.03
2018-04-02T18:34:17.492Z,17.87
2018-04-02T18:36:45.026Z,17.27
2018-04-02T18:39:12.567Z,18.63
2018-04-02T18:41:40.880Z,18.30
2018-04-02T18:44:09.295Z,18.83
2018-04-02T18:46:36.833Z,19.97
2018-04-02T18:49:04.386Z,20.70
2018-04-02T18:51:31.914Z,20.67
2018-04-02T18:53:59.463Z,18.80
2018-04-02T18:56:26.997Z,19.30
2018-04-02T18:58:54.533Z,19.43
2018-04-02T19:01:22.064Z,19.73
2018-04-02T19:03:49.594Z,21.90
2018-04-02T19:06:17.898Z,21.47
2018-04-02T19:08:45.438Z,24.87
2018-04-02T19:11:12.996Z,24.67
2018-04-02T19:13:40.524Z,23.63
2018-04-02T19:16:08.066Z,22.40
2018-04-02T19:18:35.585Z,20.83
2018-04-02T19:21:03.128Z,20.83
2018-04-02T19:23:30.727Z,20.30
2018-04-02T19:25:58.294Z,20.20
2018-04-02T19:28:25.821Z,22.37
2018-04-02T19:30:53.363Z,22.27
2018-04-02T19:33:20.881Z,19.67
2018-04-02T19:35:48.446Z,20.10
2018-04-02T19:38:15.970Z,19.67
2018-04-02T19:40:43.510Z,19.70
2018-04-02T19:43:11.050Z,18.60
2018-04-02T19:45:38.599Z,16.70
2018-04-02T19:48:06.885Z,17.37
2018-04-02T19:50:35.194Z,18.53
2018-04-02T19:53:03.481Z,18.27
2018-04-02T19:55:31.028Z,20.30
2018-04-02T19:57:58.806Z,19.50
2018-04-02T20:00:26.341Z,20.03
2018-04-02T20:02:53.856Z,18.40
2018-04-02T20:05:21.419Z,20.20
2018-04-02T20:07:48.948Z,19.13
2018-04-02T20:10:16.470Z,20.47
2018-04-02T20:12:44.028Z,17.57
2018-04-02T20:15:11.558Z,18.83
2018-04-02T20:17:39.126Z,18.87
2018-04-02T20:20:06.660Z,19.23
2018-04-02T20:22:34.202Z,18.57
2018-04-02T20:25:01.731Z,18.87
2018-04-02T20:27:29.277Z,19.23
2018-04-02T20:29:56.806Z,18.57
2018-04-02T20:32:25.114Z,19.90
2018-04-02T20:34:52.646Z,20.43
2018-04-02T20:37:20.186Z,19.50
2018-04-02T20:39:47.714Z,21.13
2018-04-02T20:42:16.044Z,19.73
2018-04-02T20:44:43.579Z,19.70
2018-04-02T20:47:11.126Z,18.43
2018-04-02T20:49:39.413Z,20.10
2018-04-02T20:52:06.966Z,19.20
2018-04-02T20:54:34.502Z,17.83
2018-04-02T20:57:02.061Z,18.80
2018-04-02T20:59:29.586Z,18.20
2018-04-02T21:01:57.148Z,19.67
2018-04-02T21:04:24.674Z,18.77
2018-04-02T21:06:52.202Z,19.77
2018-04-02T21:09:20.502Z,19.80
2018-04-02T21:11:48.047Z,20.03
2018-04-02T21:14:15.584Z,19.97
2018-04-02T21:16:43.127Z,20.20
2018-04-02T21:19:10.657Z,18.33
2018-04-02T21:21:38.196Z,19.23
2018-04-02T21:24:05.743Z,18.93
2018-04-02T21:26:33.266Z,19.70
2018-04-02T21:29:00.807Z,20.20
2018-04-02T21:31:28.330Z,20.60
2018-04-02T21:33:55.871Z,18.77
2018-04-02T21:36:23.397Z,18.97
2018-04-02T21:38:50.938Z,21.90
2018-04-02T21:41:18.460Z,21.20
2018-04-02T21:43:46.608Z,20.17
2018-04-02T21:46:14.894Z,21.47
2018-04-02T21:48:42.440Z,21.93
2018-04-02T21:51:09.982Z,20.17
2018-04-02T21:53:37.543Z,21.03
2018-04-02T21:56:05.829Z,21.97
2018-04-02T21:58:33.364Z,18.73
2018-04-02T22:01:00.901Z,18.80
2018-04-02T22:03:28.448Z,18.30
2018-04-02T22:05:55.979Z,19.53
2018-04-02T22:08:23.525Z,17.67
2018-04-02T22:10:51.058Z,19.50
2018-04-02T22:13:18.636Z,18.90
2018-04-02T22:15:46.172Z,19.37
2018-04-02T22:18:14.482Z,18.97
2018-04-02T22:20:42.015Z,18.63
2018-04-02T22:23:10.326Z,17.97
2018-04-02T22:25:37.852Z,18.63
2018-04-02T22:28:05.393Z,19.07
2018-04-02T22:30:32.918Z,17.63
2018-04-02T22:33:00.487Z,18.73
2018-04-02T22:35:28.008Z,18.67
2018-04-02T22:37:56.083Z,18.33
2018-04-02T22:40:23.621Z,17.57
2018-04-02T22:42:51.149Z,18.07
2018-04-02T22:45:18.690Z,17.83
2018-04-02T22:47:46.223Z,15.73
2018-04-02T22:50:13.773Z,16.67
2018-04-02T22:52:41.327Z,17.80
2018-04-02T22:55:08.874Z,17.53
2018-04-02T22:57:36.399Z,15.73
2018-04-02T23:00:03.975Z,17.67
2018-04-02T23:02:31.518Z,16.40
2018-04-02T23:04:59.840Z,16.57
2018-04-02T23:07:27.524Z,18.13
2018-04-02T23:09:55.095Z,18.40
2018-04-02T23:12:22.633Z,17.20
2018-04-02T23:14:50.190Z,18.80
2018-04-02T23:17:17.722Z,18.13
2018-04-02T23:19:45.260Z,17.13
2018-04-02T23:22:25.279Z,17.63
2018-04-02T23:24:52.825Z,17.47
2018-04-02T23:27:20.341Z,17.53
2018-04-02T23:29:47.880Z,16.77
2018-04-02T23:32:15.411Z,17.63
2018-04-02T23:34:42.958Z,18.10
2018-04-02T23:37:10.485Z,17.40
2018-04-02T23:39:38.032Z,17.40
2018-04-02T23:42:05.545Z,16.87
2018-04-02T23:44:33.078Z,16.90
2018-04-02T23:47:00.599Z,16.07
2018-04-02T23:49:28.143Z,16.67
2018-04-02T23:51:55.712Z,16.00
2018-04-02T23:54:23.860Z,15.00
2018-04-02T23:56:51.400Z,15.80
2018-04-02T23:59:18.913Z,16.40
